sensor_id;sensor_type;location;lat;lon;timestamp;temperature;humidity
67777;DHT22;54576;52.020;5.536;2023-12-20T00:00:55;6.80;99.90
67777;DHT22;54576;52.020;5.536;2023-12-20T00:03:21;6.90;99.90
67777;DHT22;54576;52.020;5.536;2023-12-20T00:05:47;6.80;99.90
67777;DHT22;54576;52.020;5.536;2023-12-20T00:08:12;6.80;99.90
67777;DHT22;54576;52.020;5.536;2023-12-20T00:10:38;6.70;99.90
67777;DHT22;54576;52.020;5.536;2023-12-20T00:13:05;6.70;99.90
67777;DHT22;54576;52.020;5.536;2023-12-20T00:15:32;6.60;99.90
67777;DHT22;54576;52.020;5.536;2023-12-20T00:17:58;6.60;99.90
67777;DHT22;54576;52.020;5.536;2023-12-20T00:20:23;6.50;99.90
67777;DHT22;54576;52.020;5.536;2023-12-20T00:22:49;6.50;99.90
67777;DHT22;54576;52.020;5.536;2023-12-20T00:25:14;6.40;99.90
67777;DHT22;54576;52.020;5.536;2023-12-20T00:27:40;6.40;99.90
67777;DHT22;54576;52.020;5.536;2023-12-20T00:30:06;6.30;99.90
67777;DHT22;54576;52.020;5.536;2023-12-20T00:32:32;6.30;99.90
67777;DHT22;54576;52.020;5.536;2023-12-20T00:34:57;6.20;99.90
67777;DHT22;54576;52.020;5.536;2023-12-20T00:37:23;6.20;99.90
67777;DHT22;54576;52.020;5.536;2023-12-20T00:39:50;6.10;99.90
67777;DHT22;54576;52.020;5.536;2023-12-20T00:42:16;6.10;99.90
67777;DHT22;54576;52.020;5.536;2023-12-20T00:44:42;6.00;99.90
67777;DHT22;54576;52.020;5.536;2023-12-20T00:47:07;6.00;99.90
67777;DHT22;54576;52.020;5.536;2023-12-20T00:49:33;6.00;99.90
67777;DHT22;54576;52.020;5.536;2023-12-20T00:51:58;5.90;99.90
67777;DHT22;54576;52.020;5.536;2023-12-20T00:54:24;5.90;99.90
67777;DHT22;54576;52.020;5.536;2023-12-20T00:56:49;5.90;99.90
67777;DHT22;54576;52.020;5.536;2023-12-20T00:59:16;5.90;99.90
67777;DHT22;54576;52.020;5.536;2023-12-20T01:01:43;5.90;99.90
67777;DHT22;54576;52.020;5.536;2023-12-20T01:04:08;5.90;99.90
67777;DHT22;54576;52.020;5.536;2023-12-20T01:06:34;5.90;99.90
67777;DHT22;54576;52.020;5.536;2023-12-20T01:08:59;5.90;99.90
67777;DHT22;54576;52.020;5.536;2023-12-20T01:11:25;5.90;99.90
67777;DHT22;54576;52.020;5.536;2023-12-20T01:13:50;5.90;99.90
67777;DHT22;54576;52.020;5.536;2023-12-20T01:16:16;5.80;99.90
67777;DHT22;54576;52.020;5.536;2023-12-20T01:18:41;5.80;99.90
67777;DHT22;54576;52.020;5.536;2023-12-20T01:21:07;5.80;99.90
67777;DHT22;54576;52.020;5.536;2023-12-20T01:23:32;5.70;99.90
67777;DHT22;54576;52.020;5.536;2023-12-20T01:26:02;5.70;99.90
67777;DHT22;54576;52.020;5.536;2023-12-20T01:28:28;5.70;99.90
67777;DHT22;54576;52.020;5.536;2023-12-20T01:30:53;5.70;99.90
67777;DHT22;54576;52.020;5.536;2023-12-20T01:33:19;5.70;99.90
67777;DHT22;54576;52.020;5.536;2023-12-20T01:35:45;5.70;99.90
67777;DHT22;54576;52.020;5.536;2023-12-20T01:38:10;5.70;99.90
67777;DHT22;54576;52.020;5.536;2023-12-20T01:40:37;5.70;99.90
67777;DHT22;54576;52.020;5.536;2023-12-20T01:43:07;5.70;99.90
67777;DHT22;54576;52.020;5.536;2023-12-20T01:45:34;5.70;99.90
67777;DHT22;54576;52.020;5.536;2023-12-20T01:48:00;5.70;99.90
67777;DHT22;54576;52.020;5.536;2023-12-20T01:50:28;5.70;99.90
67777;DHT22;54576;52.020;5.536;2023-12-20T01:52:55;5.70;99.90
67777;DHT22;54576;52.020;5.536;2023-12-20T01:55:23;5.80;99.90
67777;DHT22;54576;52.020;5.536;2023-12-20T01:57:50;5.90;99.90
67777;DHT22;54576;52.020;5.536;2023-12-20T02:00:16;5.90;99.90
67777;DHT22;54576;52.020;5.536;2023-12-20T02:02:44;5.90;99.90
67777;DHT22;54576;52.020;5.536;2023-12-20T02:05:11;5.90;99.90
67777;DHT22;54576;52.020;5.536;2023-12-20T02:07:36;6.00;99.90
67777;DHT22;54576;52.020;5.536;2023-12-20T02:10:02;6.00;99.90
67777;DHT22;54576;52.020;5.536;2023-12-20T02:12:29;6.00;99.90
67777;DHT22;54576;52.020;5.536;2023-12-20T02:14:55;6.00;99.90
67777;DHT22;54576;52.020;5.536;2023-12-20T02:17:22;6.00;99.90
67777;DHT22;54576;52.020;5.536;2023-12-20T02:19:49;6.00;99.90
67777;DHT22;54576;52.020;5.536;2023-12-20T02:22:14;6.00;99.90
67777;DHT22;54576;52.020;5.536;2023-12-20T02:24:40;6.00;99.90
67777;DHT22;54576;52.020;5.536;2023-12-20T02:27:06;6.10;99.90
67777;DHT22;54576;52.020;5.536;2023-12-20T02:29:33;6.10;99.90
67777;DHT22;54576;52.020;5.536;2023-12-20T02:31:59;6.10;99.90
67777;DHT22;54576;52.020;5.536;2023-12-20T02:34:25;6.10;99.90
67777;DHT22;54576;52.020;5.536;2023-12-20T02:36:50;6.20;99.90
67777;DHT22;54576;52.020;5.536;2023-12-20T02:39:16;6.20;99.90
67777;DHT22;54576;52.020;5.536;2023-12-20T02:41:42;6.20;99.90
67777;DHT22;54576;52.020;5.536;2023-12-20T02:44:08;6.30;99.90
67777;DHT22;54576;52.020;5.536;2023-12-20T02:46:33;6.30;99.90
67777;DHT22;54576;52.020;5.536;2023-12-20T02:48:59;6.30;99.90
67777;DHT22;54576;52.020;5.536;2023-12-20T02:51:24;6.20;99.90
67777;DHT22;54576;52.020;5.536;2023-12-20T02:53:50;6.20;99.90
67777;DHT22;54576;52.020;5.536;2023-12-20T02:56:16;6.20;99.90
67777;DHT22;54576;52.020;5.536;2023-12-20T02:58:41;6.20;99.90
67777;DHT22;54576;52.020;5.536;2023-12-20T03:01:07;6.10;99.90
67777;DHT22;54576;52.020;5.536;2023-12-20T03:03:32;6.10;99.90
67777;DHT22;54576;52.020;5.536;2023-12-20T03:05:58;6.10;99.90
67777;DHT22;54576;52.020;5.536;2023-12-20T03:08:24;6.10;99.90
67777;DHT22;54576;52.020;5.536;2023-12-20T03:10:49;6.10;99.90
67777;DHT22;54576;52.020;5.536;2023-12-20T03:13:15;6.10;99.90
67777;DHT22;54576;52.020;5.536;2023-12-20T03:15:41;6.10;99.90
67777;DHT22;54576;52.020;5.536;2023-12-20T03:18:06;6.20;99.90
67777;DHT22;54576;52.020;5.536;2023-12-20T03:20:32;6.20;99.90
67777;DHT22;54576;52.020;5.536;2023-12-20T03:23:00;6.20;99.90
67777;DHT22;54576;52.020;5.536;2023-12-20T03:25:25;6.20;99.90
67777;DHT22;54576;52.020;5.536;2023-12-20T03:27:52;6.20;99.90
67777;DHT22;54576;52.020;5.536;2023-12-20T03:30:18;6.20;99.90
67777;DHT22;54576;52.020;5.536;2023-12-20T03:32:44;6.20;99.90
67777;DHT22;54576;52.020;5.536;2023-12-20T03:35:09;6.20;99.90
67777;DHT22;54576;52.020;5.536;2023-12-20T03:37:35;6.20;99.90
67777;DHT22;54576;52.020;5.536;2023-12-20T03:40:04;6.30;99.90
67777;DHT22;54576;52.020;5.536;2023-12-20T03:42:30;6.30;99.90
67777;DHT22;54576;52.020;5.536;2023-12-20T03:44:56;6.20;99.90
67777;DHT22;54576;52.020;5.536;2023-12-20T03:47:21;6.20;99.90
67777;DHT22;54576;52.020;5.536;2023-12-20T03:49:47;6.20;99.90
67777;DHT22;54576;52.020;5.536;2023-12-20T03:52:13;6.20;99.90
67777;DHT22;54576;52.020;5.536;2023-12-20T03:54:38;6.20;99.90
67777;DHT22;54576;52.020;5.536;2023-12-20T03:57:04;6.20;99.90
67777;DHT22;54576;52.020;5.536;2023-12-20T03:59:34;6.20;99.90
67777;DHT22;54576;52.020;5.536;2023-12-20T04:01:59;6.20;99.90
67777;DHT22;54576;52.020;5.536;2023-12-20T04:04:25;6.20;99.90
67777;DHT22;54576;52.020;5.536;2023-12-20T04:06:51;6.20;99.90
67777;DHT22;54576;52.020;5.536;2023-12-20T04:09:16;6.30;99.90
67777;DHT22;54576;52.020;5.536;2023-12-20T04:11:42;6.30;99.90
67777;DHT22;54576;52.020;5.536;2023-12-20T04:14:07;6.30;99.90
67777;DHT22;54576;52.020;5.536;2023-12-20T04:16:33;6.30;99.90
67777;DHT22;54576;52.020;5.536;2023-12-20T04:18:58;6.30;99.90
67777;DHT22;54576;52.020;5.536;2023-12-20T04:21:24;6.40;99.90
67777;DHT22;54576;52.020;5.536;2023-12-20T04:23:50;6.40;99.90
67777;DHT22;54576;52.020;5.536;2023-12-20T04:26:15;6.50;99.90
67777;DHT22;54576;52.020;5.536;2023-12-20T04:28:41;6.50;99.90
67777;DHT22;54576;52.020;5.536;2023-12-20T04:31:07;6.50;99.90
67777;DHT22;54576;52.020;5.536;2023-12-20T04:33:32;6.50;99.90
67777;DHT22;54576;52.020;5.536;2023-12-20T04:35:58;6.60;99.90
67777;DHT22;54576;52.020;5.536;2023-12-20T04:38:25;6.60;99.90
67777;DHT22;54576;52.020;5.536;2023-12-20T04:40:50;6.60;99.90
67777;DHT22;54576;52.020;5.536;2023-12-20T04:43:16;6.60;99.90
67777;DHT22;54576;52.020;5.536;2023-12-20T04:45:42;6.60;99.90
67777;DHT22;54576;52.020;5.536;2023-12-20T04:48:09;6.70;99.90
67777;DHT22;54576;52.020;5.536;2023-12-20T04:50:35;6.70;99.90
67777;DHT22;54576;52.020;5.536;2023-12-20T04:53:01;6.80;99.90
67777;DHT22;54576;52.020;5.536;2023-12-20T04:55:27;6.80;99.90
67777;DHT22;54576;52.020;5.536;2023-12-20T04:57:52;6.80;99.90
67777;DHT22;54576;52.020;5.536;2023-12-20T05:00:18;6.80;99.90
67777;DHT22;54576;52.020;5.536;2023-12-20T05:02:43;6.80;99.90
67777;DHT22;54576;52.020;5.536;2023-12-20T05:05:09;6.90;99.90
67777;DHT22;54576;52.020;5.536;2023-12-20T05:07:35;6.90;99.90
67777;DHT22;54576;52.020;5.536;2023-12-20T05:10:01;6.90;99.90
67777;DHT22;54576;52.020;5.536;2023-12-20T05:12:27;7.00;99.90
67777;DHT22;54576;52.020;5.536;2023-12-20T05:14:52;7.00;99.90
67777;DHT22;54576;52.020;5.536;2023-12-20T05:17:18;7.00;99.90
67777;DHT22;54576;52.020;5.536;2023-12-20T05:19:45;7.00;99.90
67777;DHT22;54576;52.020;5.536;2023-12-20T05:22:11;7.10;99.90
67777;DHT22;54576;52.020;5.536;2023-12-20T05:24:37;7.10;99.90
67777;DHT22;54576;52.020;5.536;2023-12-20T05:27:02;7.10;99.90
67777;DHT22;54576;52.020;5.536;2023-12-20T05:29:28;7.10;99.90
67777;DHT22;54576;52.020;5.536;2023-12-20T05:31:53;7.20;99.90
67777;DHT22;54576;52.020;5.536;2023-12-20T05:34:19;7.20;99.90
67777;DHT22;54576;52.020;5.536;2023-12-20T05:36:45;7.20;99.90
67777;DHT22;54576;52.020;5.536;2023-12-20T05:39:11;7.20;99.90
67777;DHT22;54576;52.020;5.536;2023-12-20T05:41:37;7.20;99.90
67777;DHT22;54576;52.020;5.536;2023-12-20T05:44:02;7.30;99.90
67777;DHT22;54576;52.020;5.536;2023-12-20T05:46:28;7.30;99.90
67777;DHT22;54576;52.020;5.536;2023-12-20T05:48:53;7.30;99.90
67777;DHT22;54576;52.020;5.536;2023-12-20T05:51:19;7.30;99.90
67777;DHT22;54576;52.020;5.536;2023-12-20T05:53:45;7.30;99.90
67777;DHT22;54576;52.020;5.536;2023-12-20T05:56:11;7.30;99.90
67777;DHT22;54576;52.020;5.536;2023-12-20T05:58:38;7.30;99.90
67777;DHT22;54576;52.020;5.536;2023-12-20T06:01:04;7.30;99.90
67777;DHT22;54576;52.020;5.536;2023-12-20T06:03:31;7.30;99.90
67777;DHT22;54576;52.020;5.536;2023-12-20T06:05:56;7.30;99.90
67777;DHT22;54576;52.020;5.536;2023-12-20T06:08:22;7.30;99.90
67777;DHT22;54576;52.020;5.536;2023-12-20T06:10:48;7.30;99.90
67777;DHT22;54576;52.020;5.536;2023-12-20T06:13:13;7.30;99.90
67777;DHT22;54576;52.020;5.536;2023-12-20T06:15:39;7.30;99.90
67777;DHT22;54576;52.020;5.536;2023-12-20T06:18:05;7.30;99.90
67777;DHT22;54576;52.020;5.536;2023-12-20T06:20:31;7.30;99.90
67777;DHT22;54576;52.020;5.536;2023-12-20T06:22:57;7.30;99.90
67777;DHT22;54576;52.020;5.536;2023-12-20T06:25:23;7.30;99.90
67777;DHT22;54576;52.020;5.536;2023-12-20T06:27:49;7.30;99.90
67777;DHT22;54576;52.020;5.536;2023-12-20T06:32:41;7.30;99.90
67777;DHT22;54576;52.020;5.536;2023-12-20T06:35:08;7.40;99.90
67777;DHT22;54576;52.020;5.536;2023-12-20T06:37:34;7.40;99.90
67777;DHT22;54576;52.020;5.536;2023-12-20T06:40:00;7.40;99.90
67777;DHT22;54576;52.020;5.536;2023-12-20T06:42:26;7.40;99.90
67777;DHT22;54576;52.020;5.536;2023-12-20T06:44:51;7.40;99.90
67777;DHT22;54576;52.020;5.536;2023-12-20T06:47:17;7.40;99.90
67777;DHT22;54576;52.020;5.536;2023-12-20T06:49:42;7.40;99.90
67777;DHT22;54576;52.020;5.536;2023-12-20T06:52:08;7.40;99.90
67777;DHT22;54576;52.020;5.536;2023-12-20T06:54:33;7.40;99.90
67777;DHT22;54576;52.020;5.536;2023-12-20T06:57:02;7.40;99.90
67777;DHT22;54576;52.020;5.536;2023-12-20T06:59:29;7.40;99.90
67777;DHT22;54576;52.020;5.536;2023-12-20T07:01:55;7.40;99.90
67777;DHT22;54576;52.020;5.536;2023-12-20T07:04:20;7.40;99.90
67777;DHT22;54576;52.020;5.536;2023-12-20T07:06:48;7.40;99.90
67777;DHT22;54576;52.020;5.536;2023-12-20T07:09:13;7.40;99.90
67777;DHT22;54576;52.020;5.536;2023-12-20T07:11:39;7.40;99.90
67777;DHT22;54576;52.020;5.536;2023-12-20T07:14:05;7.50;99.90
67777;DHT22;54576;52.020;5.536;2023-12-20T07:16:30;7.50;99.90
67777;DHT22;54576;52.020;5.536;2023-12-20T07:18:56;7.50;99.90
67777;DHT22;54576;52.020;5.536;2023-12-20T07:21:22;7.50;99.90
67777;DHT22;54576;52.020;5.536;2023-12-20T07:23:47;7.50;99.90
67777;DHT22;54576;52.020;5.536;2023-12-20T07:26:13;7.50;99.90
67777;DHT22;54576;52.020;5.536;2023-12-20T07:31:05;7.50;99.90
67777;DHT22;54576;52.020;5.536;2023-12-20T07:33:31;7.50;99.90
67777;DHT22;54576;52.020;5.536;2023-12-20T07:35:57;7.50;99.90
67777;DHT22;54576;52.020;5.536;2023-12-20T07:38:22;7.50;99.90
67777;DHT22;54576;52.020;5.536;2023-12-20T07:40:48;7.50;99.90
67777;DHT22;54576;52.020;5.536;2023-12-20T07:43:13;7.60;99.90
67777;DHT22;54576;52.020;5.536;2023-12-20T07:45:39;7.60;99.90
67777;DHT22;54576;52.020;5.536;2023-12-20T07:48:06;7.60;99.90
67777;DHT22;54576;52.020;5.536;2023-12-20T07:50:31;7.60;99.90
67777;DHT22;54576;52.020;5.536;2023-12-20T07:52:58;7.60;99.90
67777;DHT22;54576;52.020;5.536;2023-12-20T07:55:25;7.60;99.90
67777;DHT22;54576;52.020;5.536;2023-12-20T07:57:50;7.60;99.90
67777;DHT22;54576;52.020;5.536;2023-12-20T08:00:16;7.60;99.90
67777;DHT22;54576;52.020;5.536;2023-12-20T08:02:42;7.60;99.90
67777;DHT22;54576;52.020;5.536;2023-12-20T08:05:07;7.70;99.90
67777;DHT22;54576;52.020;5.536;2023-12-20T08:07:33;7.70;99.90
67777;DHT22;54576;52.020;5.536;2023-12-20T08:09:59;7.70;99.90
67777;DHT22;54576;52.020;5.536;2023-12-20T08:12:24;7.70;99.90
67777;DHT22;54576;52.020;5.536;2023-12-20T08:14:53;7.70;99.90
67777;DHT22;54576;52.020;5.536;2023-12-20T08:17:18;7.70;99.90
67777;DHT22;54576;52.020;5.536;2023-12-20T08:19:44;7.70;99.90
67777;DHT22;54576;52.020;5.536;2023-12-20T08:22:10;7.70;99.90
67777;DHT22;54576;52.020;5.536;2023-12-20T08:24:36;7.70;99.90
67777;DHT22;54576;52.020;5.536;2023-12-20T08:27:02;7.70;99.90
67777;DHT22;54576;52.020;5.536;2023-12-20T08:29:28;7.70;99.90
67777;DHT22;54576;52.020;5.536;2023-12-20T08:31:56;7.80;99.90
67777;DHT22;54576;52.020;5.536;2023-12-20T08:34:22;7.80;99.90
67777;DHT22;54576;52.020;5.536;2023-12-20T08:36:51;7.80;99.90
67777;DHT22;54576;52.020;5.536;2023-12-20T08:39:17;7.80;99.90
67777;DHT22;54576;52.020;5.536;2023-12-20T08:41:42;7.80;99.90
67777;DHT22;54576;52.020;5.536;2023-12-20T08:44:09;7.90;99.90
67777;DHT22;54576;52.020;5.536;2023-12-20T08:46:34;7.90;99.90
67777;DHT22;54576;52.020;5.536;2023-12-20T08:49:01;7.90;99.90
67777;DHT22;54576;52.020;5.536;2023-12-20T08:51:27;7.90;99.90
67777;DHT22;54576;52.020;5.536;2023-12-20T08:53:53;7.90;99.90
67777;DHT22;54576;52.020;5.536;2023-12-20T08:56:19;7.90;99.90
67777;DHT22;54576;52.020;5.536;2023-12-20T08:58:46;7.90;99.90
67777;DHT22;54576;52.020;5.536;2023-12-20T09:01:12;7.90;99.90
67777;DHT22;54576;52.020;5.536;2023-12-20T09:03:39;7.90;99.90
67777;DHT22;54576;52.020;5.536;2023-12-20T09:06:04;7.90;99.90
67777;DHT22;54576;52.020;5.536;2023-12-20T09:08:30;7.90;99.90
67777;DHT22;54576;52.020;5.536;2023-12-20T09:10:57;7.90;99.90
67777;DHT22;54576;52.020;5.536;2023-12-20T09:13:23;8.00;99.90
67777;DHT22;54576;52.020;5.536;2023-12-20T09:15:55;7.90;99.90
67777;DHT22;54576;52.020;5.536;2023-12-20T09:18:20;7.90;99.90
67777;DHT22;54576;52.020;5.536;2023-12-20T09:20:46;7.90;99.90
67777;DHT22;54576;52.020;5.536;2023-12-20T09:23:11;7.90;99.90
67777;DHT22;54576;52.020;5.536;2023-12-20T09:25:37;7.90;99.90
67777;DHT22;54576;52.020;5.536;2023-12-20T09:28:03;7.90;99.90
67777;DHT22;54576;52.020;5.536;2023-12-20T09:30:29;7.90;99.90
67777;DHT22;54576;52.020;5.536;2023-12-20T09:32:55;7.90;99.90
67777;DHT22;54576;52.020;5.536;2023-12-20T09:35:20;7.90;99.90
67777;DHT22;54576;52.020;5.536;2023-12-20T09:37:46;7.90;99.90
67777;DHT22;54576;52.020;5.536;2023-12-20T09:40:13;7.90;99.90
67777;DHT22;54576;52.020;5.536;2023-12-20T09:45:15;7.90;99.90
67777;DHT22;54576;52.020;5.536;2023-12-20T09:47:43;8.00;99.90
67777;DHT22;54576;52.020;5.536;2023-12-20T09:50:09;8.00;99.90
67777;DHT22;54576;52.020;5.536;2023-12-20T09:52:36;8.10;99.90
67777;DHT22;54576;52.020;5.536;2023-12-20T09:55:04;8.10;99.90
67777;DHT22;54576;52.020;5.536;2023-12-20T09:57:33;8.10;99.90
67777;DHT22;54576;52.020;5.536;2023-12-20T09:59:59;8.20;99.90
67777;DHT22;54576;52.020;5.536;2023-12-20T10:02:25;8.20;99.90
67777;DHT22;54576;52.020;5.536;2023-12-20T10:04:55;8.30;99.90
67777;DHT22;54576;52.020;5.536;2023-12-20T10:07:21;8.30;99.90
67777;DHT22;54576;52.020;5.536;2023-12-20T10:09:48;8.30;99.90
67777;DHT22;54576;52.020;5.536;2023-12-20T10:12:14;8.40;99.90
67777;DHT22;54576;52.020;5.536;2023-12-20T10:14:40;8.40;99.90
67777;DHT22;54576;52.020;5.536;2023-12-20T10:17:06;8.40;99.90
67777;DHT22;54576;52.020;5.536;2023-12-20T10:19:32;8.40;99.90
67777;DHT22;54576;52.020;5.536;2023-12-20T10:21:59;8.50;99.90
67777;DHT22;54576;52.020;5.536;2023-12-20T10:24:25;8.50;99.90
67777;DHT22;54576;52.020;5.536;2023-12-20T10:27:04;8.50;99.90
67777;DHT22;54576;52.020;5.536;2023-12-20T10:29:36;8.60;99.90
67777;DHT22;54576;52.020;5.536;2023-12-20T10:32:24;8.60;99.90
67777;DHT22;54576;52.020;5.536;2023-12-20T10:34:51;8.60;99.90
67777;DHT22;54576;52.020;5.536;2023-12-20T10:37:16;8.60;99.90
67777;DHT22;54576;52.020;5.536;2023-12-20T10:39:42;8.70;99.90
67777;DHT22;54576;52.020;5.536;2023-12-20T10:42:10;8.70;99.90
67777;DHT22;54576;52.020;5.536;2023-12-20T10:44:36;8.80;99.90
67777;DHT22;54576;52.020;5.536;2023-12-20T10:47:03;8.80;99.90
67777;DHT22;54576;52.020;5.536;2023-12-20T10:49:30;8.80;99.90
67777;DHT22;54576;52.020;5.536;2023-12-20T10:51:57;8.90;99.90
67777;DHT22;54576;52.020;5.536;2023-12-20T10:54:25;8.90;99.90
67777;DHT22;54576;52.020;5.536;2023-12-20T10:56:52;8.90;99.90
67777;DHT22;54576;52.020;5.536;2023-12-20T10:59:19;9.00;99.90
67777;DHT22;54576;52.020;5.536;2023-12-20T11:01:47;9.10;99.90
67777;DHT22;54576;52.020;5.536;2023-12-20T11:04:19;9.10;99.90
67777;DHT22;54576;52.020;5.536;2023-12-20T11:09:24;9.20;99.90
67777;DHT22;54576;52.020;5.536;2023-12-20T11:17:10;9.20;99.90
67777;DHT22;54576;52.020;5.536;2023-12-20T11:19:43;9.20;99.90
67777;DHT22;54576;52.020;5.536;2023-12-20T11:22:31;9.20;99.90
67777;DHT22;54576;52.020;5.536;2023-12-20T11:25:05;9.30;99.90
67777;DHT22;54576;52.020;5.536;2023-12-20T11:27:35;9.30;99.90
67777;DHT22;54576;52.020;5.536;2023-12-20T11:30:03;9.40;99.90
67777;DHT22;54576;52.020;5.536;2023-12-20T11:32:34;9.40;99.90
67777;DHT22;54576;52.020;5.536;2023-12-20T11:35:02;9.40;99.90
67777;DHT22;54576;52.020;5.536;2023-12-20T11:37:41;9.40;99.90
67777;DHT22;54576;52.020;5.536;2023-12-20T11:40:11;9.40;99.90
67777;DHT22;54576;52.020;5.536;2023-12-20T11:42:39;9.40;99.90
67777;DHT22;54576;52.020;5.536;2023-12-20T11:45:09;9.40;99.90
67777;DHT22;54576;52.020;5.536;2023-12-20T11:47:35;9.50;99.90
67777;DHT22;54576;52.020;5.536;2023-12-20T11:50:01;9.50;99.90
67777;DHT22;54576;52.020;5.536;2023-12-20T11:52:29;9.60;99.90
67777;DHT22;54576;52.020;5.536;2023-12-20T11:54:55;9.70;99.90
67777;DHT22;54576;52.020;5.536;2023-12-20T11:57:20;9.70;99.90
67777;DHT22;54576;52.020;5.536;2023-12-20T11:59:46;9.70;99.90
67777;DHT22;54576;52.020;5.536;2023-12-20T12:02:12;9.80;99.90
67777;DHT22;54576;52.020;5.536;2023-12-20T15:20:28;9.40;99.90
67777;DHT22;54576;52.020;5.536;2023-12-20T15:22:53;9.30;99.90
67777;DHT22;54576;52.020;5.536;2023-12-20T15:25:20;9.30;99.90
67777;DHT22;54576;52.020;5.536;2023-12-20T15:27:48;9.30;99.90
67777;DHT22;54576;52.020;5.536;2023-12-20T15:30:19;9.30;99.90
67777;DHT22;54576;52.020;5.536;2023-12-20T15:32:44;9.30;99.90
67777;DHT22;54576;52.020;5.536;2023-12-20T15:35:10;9.30;99.90
67777;DHT22;54576;52.020;5.536;2023-12-20T15:37:35;9.30;99.90
67777;DHT22;54576;52.020;5.536;2023-12-20T15:40:02;9.20;99.90
67777;DHT22;54576;52.020;5.536;2023-12-20T15:42:28;9.30;99.90
67777;DHT22;54576;52.020;5.536;2023-12-20T15:44:56;9.20;99.90
67777;DHT22;54576;52.020;5.536;2023-12-20T15:47:21;9.20;99.90
67777;DHT22;54576;52.020;5.536;2023-12-20T15:49:47;9.20;99.90
67777;DHT22;54576;52.020;5.536;2023-12-20T15:52:14;9.20;99.90
67777;DHT22;54576;52.020;5.536;2023-12-20T15:54:40;9.10;99.90
67777;DHT22;54576;52.020;5.536;2023-12-20T15:57:06;9.10;99.90
67777;DHT22;54576;52.020;5.536;2023-12-20T15:59:32;9.10;99.90
67777;DHT22;54576;52.020;5.536;2023-12-20T16:02:00;9.00;99.90
67777;DHT22;54576;52.020;5.536;2023-12-20T16:04:26;9.00;99.90
67777;DHT22;54576;52.020;5.536;2023-12-20T16:06:51;9.00;99.90
67777;DHT22;54576;52.020;5.536;2023-12-20T16:09:17;9.00;99.90
67777;DHT22;54576;52.020;5.536;2023-12-20T16:11:43;8.90;99.90
67777;DHT22;54576;52.020;5.536;2023-12-20T16:14:09;8.90;99.90
67777;DHT22;54576;52.020;5.536;2023-12-20T16:16:39;8.90;99.90
67777;DHT22;54576;52.020;5.536;2023-12-20T16:19:04;8.90;99.90
67777;DHT22;54576;52.020;5.536;2023-12-20T16:21:30;8.90;99.90
67777;DHT22;54576;52.020;5.536;2023-12-20T16:23:55;8.90;99.90
67777;DHT22;54576;52.020;5.536;2023-12-20T16:26:21;8.90;99.90
67777;DHT22;54576;52.020;5.536;2023-12-20T16:28:46;8.90;99.90
67777;DHT22;54576;52.020;5.536;2023-12-20T16:31:16;8.90;99.90
67777;DHT22;54576;52.020;5.536;2023-12-20T16:33:41;8.90;99.90
67777;DHT22;54576;52.020;5.536;2023-12-20T16:36:08;8.90;99.90
67777;DHT22;54576;52.020;5.536;2023-12-20T16:38:34;8.90;99.90
67777;DHT22;54576;52.020;5.536;2023-12-20T16:41:00;8.90;99.90
67777;DHT22;54576;52.020;5.536;2023-12-20T16:43:27;8.90;99.90
67777;DHT22;54576;52.020;5.536;2023-12-20T16:45:52;8.80;99.90
67777;DHT22;54576;52.020;5.536;2023-12-20T16:48:18;8.90;99.90
67777;DHT22;54576;52.020;5.536;2023-12-20T16:50:43;8.90;99.90
67777;DHT22;54576;52.020;5.536;2023-12-20T16:53:10;8.90;99.90
67777;DHT22;54576;52.020;5.536;2023-12-20T16:55:36;8.90;99.90
67777;DHT22;54576;52.020;5.536;2023-12-20T16:58:01;8.90;99.90
67777;DHT22;54576;52.020;5.536;2023-12-20T17:00:27;8.90;99.90
67777;DHT22;54576;52.020;5.536;2023-12-20T17:02:52;8.90;99.90
67777;DHT22;54576;52.020;5.536;2023-12-20T17:05:18;8.90;99.90
67777;DHT22;54576;52.020;5.536;2023-12-20T17:07:44;8.90;99.90
67777;DHT22;54576;52.020;5.536;2023-12-20T17:10:10;8.90;99.90
67777;DHT22;54576;52.020;5.536;2023-12-20T17:12:35;8.80;99.90
67777;DHT22;54576;52.020;5.536;2023-12-20T17:15:01;8.80;99.90
67777;DHT22;54576;52.020;5.536;2023-12-20T17:17:28;8.80;99.90
67777;DHT22;54576;52.020;5.536;2023-12-20T17:19:54;8.80;99.90
67777;DHT22;54576;52.020;5.536;2023-12-20T17:22:20;8.80;99.90
67777;DHT22;54576;52.020;5.536;2023-12-20T17:24:46;8.80;99.90
67777;DHT22;54576;52.020;5.536;2023-12-20T17:27:12;8.80;99.90
67777;DHT22;54576;52.020;5.536;2023-12-20T17:29:38;8.80;99.90
67777;DHT22;54576;52.020;5.536;2023-12-20T17:32:04;8.90;99.90
67777;DHT22;54576;52.020;5.536;2023-12-20T17:34:30;8.80;99.90
67777;DHT22;54576;52.020;5.536;2023-12-20T17:36:55;8.80;99.90
67777;DHT22;54576;52.020;5.536;2023-12-20T17:39:21;8.80;99.90
67777;DHT22;54576;52.020;5.536;2023-12-20T17:41:47;8.80;99.90
67777;DHT22;54576;52.020;5.536;2023-12-20T17:44:12;8.80;99.90
67777;DHT22;54576;52.020;5.536;2023-12-20T17:46:39;8.80;99.90
67777;DHT22;54576;52.020;5.536;2023-12-20T17:49:05;8.80;99.90
67777;DHT22;54576;52.020;5.536;2023-12-20T17:51:31;8.80;99.90
67777;DHT22;54576;52.020;5.536;2023-12-20T17:53:56;8.90;99.90
67777;DHT22;54576;52.020;5.536;2023-12-20T17:56:22;8.90;99.90
67777;DHT22;54576;52.020;5.536;2023-12-20T17:58:49;8.90;99.90
67777;DHT22;54576;52.020;5.536;2023-12-20T18:01:14;8.90;99.90
67777;DHT22;54576;52.020;5.536;2023-12-20T18:03:40;8.90;99.90
67777;DHT22;54576;52.020;5.536;2023-12-20T18:06:07;8.90;99.90
67777;DHT22;54576;52.020;5.536;2023-12-20T18:08:32;8.90;99.90
67777;DHT22;54576;52.020;5.536;2023-12-20T18:10:58;8.90;99.90
67777;DHT22;54576;52.020;5.536;2023-12-20T18:13:24;8.90;99.90
67777;DHT22;54576;52.020;5.536;2023-12-20T18:15:49;8.90;99.90
67777;DHT22;54576;52.020;5.536;2023-12-20T18:18:21;8.90;99.90
67777;DHT22;54576;52.020;5.536;2023-12-20T18:20:50;8.90;99.90
67777;DHT22;54576;52.020;5.536;2023-12-20T18:23:15;8.90;99.90
67777;DHT22;54576;52.020;5.536;2023-12-20T18:25:41;8.90;99.90
67777;DHT22;54576;52.020;5.536;2023-12-20T18:28:06;9.00;99.90
67777;DHT22;54576;52.020;5.536;2023-12-20T18:30:32;8.90;99.90
67777;DHT22;54576;52.020;5.536;2023-12-20T18:32:57;9.00;99.90
67777;DHT22;54576;52.020;5.536;2023-12-20T18:35:23;8.90;99.90
67777;DHT22;54576;52.020;5.536;2023-12-20T18:37:49;8.90;99.90
67777;DHT22;54576;52.020;5.536;2023-12-20T18:40:15;8.90;99.90
67777;DHT22;54576;52.020;5.536;2023-12-20T18:42:40;8.90;99.90
67777;DHT22;54576;52.020;5.536;2023-12-20T18:45:06;8.90;99.90
67777;DHT22;54576;52.020;5.536;2023-12-20T18:47:33;9.00;99.90
67777;DHT22;54576;52.020;5.536;2023-12-20T18:49:58;8.90;99.90
67777;DHT22;54576;52.020;5.536;2023-12-20T18:52:28;8.90;99.90
67777;DHT22;54576;52.020;5.536;2023-12-20T18:54:53;8.90;99.90
67777;DHT22;54576;52.020;5.536;2023-12-20T18:57:19;8.90;99.90
67777;DHT22;54576;52.020;5.536;2023-12-20T18:59:47;8.90;99.90
67777;DHT22;54576;52.020;5.536;2023-12-20T19:02:15;8.90;99.90
67777;DHT22;54576;52.020;5.536;2023-12-20T19:04:40;8.90;99.90
67777;DHT22;54576;52.020;5.536;2023-12-20T19:07:06;8.90;99.90
67777;DHT22;54576;52.020;5.536;2023-12-20T19:09:31;8.90;99.90